sensor_id;sensor_type;location;lat;lon;timestamp;P1;durP1;ratioP1;P2;durP2;ratioP2
19260;SDS011;9764;48.114;11.670;2022-08-03T00:01:44;2.90;;;2.70;;
19260;SDS011;9764;48.114;11.670;2022-08-03T00:04:14;2.70;;;2.50;;
19260;SDS011;9764;48.114;11.670;2022-08-03T00:06:43;3.00;;;2.70;;
19260;SDS011;9764;48.114;11.670;2022-08-03T00:09:11;2.78;;;2.53;;
19260;SDS011;9764;48.114;11.670;2022-08-03T00:11:40;2.65;;;2.45;;
19260;SDS011;9764;48.114;11.670;2022-08-03T00:14:09;2.97;;;2.70;;
19260;SDS011;9764;48.114;11.670;2022-08-03T00:16:37;2.80;;;2.60;;
19260;SDS011;9764;48.114;11.670;2022-08-03T00:19:06;3.17;;;2.80;;
19260;SDS011;9764;48.114;11.670;2022-08-03T00:21:36;2.90;;;2.22;;
19260;SDS011;9764;48.114;11.670;2022-08-03T00:24:04;3.25;;;2.42;;
19260;SDS011;9764;48.114;11.670;2022-08-03T00:26:33;4.43;;;3.00;;
19260;SDS011;9764;48.114;11.670;2022-08-03T00:29:02;2.70;;;2.40;;
19260;SDS011;9764;48.114;11.670;2022-08-03T00:31:30;2.60;;;2.40;;
19260;SDS011;9764;48.114;11.670;2022-08-03T00:34:18;2.95;;;2.30;;
19260;SDS011;9764;48.114;11.670;2022-08-03T00:37:03;2.72;;;2.53;;
19260;SDS011;9764;48.114;11.670;2022-08-03T00:39:32;3.30;;;2.30;;
19260;SDS011;9764;48.114;11.670;2022-08-03T00:42:01;4.10;;;2.35;;
19260;SDS011;9764;48.114;11.670;2022-08-03T00:44:30;3.95;;;2.28;;
19260;SDS011;9764;48.114;11.670;2022-08-03T00:46:59;3.67;;;2.33;;
19260;SDS011;9764;48.114;11.670;2022-08-03T00:49:27;2.67;;;2.35;;
19260;SDS011;9764;48.114;11.670;2022-08-03T00:51:56;2.72;;;2.53;;
19260;SDS011;9764;48.114;11.670;2022-08-03T00:54:36;2.60;;;2.38;;
19260;SDS011;9764;48.114;11.670;2022-08-03T00:57:05;2.47;;;2.25;;
19260;SDS011;9764;48.114;11.670;2022-08-03T00:59:34;3.00;;;2.38;;
19260;SDS011;9764;48.114;11.670;2022-08-03T01:02:03;2.13;;;2.03;;
19260;SDS011;9764;48.114;11.670;2022-08-03T01:04:32;3.92;;;2.42;;
19260;SDS011;9764;48.114;11.670;2022-08-03T01:07:02;3.20;;;2.15;;
19260;SDS011;9764;48.114;11.670;2022-08-03T01:09:40;2.78;;;2.53;;
19260;SDS011;9764;48.114;11.670;2022-08-03T01:12:16;3.53;;;2.63;;
19260;SDS011;9764;48.114;11.670;2022-08-03T01:14:50;3.00;;;2.70;;
19260;SDS011;9764;48.114;11.670;2022-08-03T01:17:24;2.75;;;2.50;;
19260;SDS011;9764;48.114;11.670;2022-08-03T01:19:58;2.75;;;2.35;;
19260;SDS011;9764;48.114;11.670;2022-08-03T01:25:24;3.17;;;2.55;;
19260;SDS011;9764;48.114;11.670;2022-08-03T01:27:57;2.58;;;2.38;;
19260;SDS011;9764;48.114;11.670;2022-08-03T01:30:32;4.05;;;2.45;;
19260;SDS011;9764;48.114;11.670;2022-08-03T01:33:02;2.88;;;2.60;;
19260;SDS011;9764;48.114;11.670;2022-08-03T01:35:34;2.70;;;2.50;;
19260;SDS011;9764;48.114;11.670;2022-08-03T01:38:06;3.40;;;2.45;;
19260;SDS011;9764;48.114;11.670;2022-08-03T01:40:38;2.65;;;2.45;;
19260;SDS011;9764;48.114;11.670;2022-08-03T01:43:08;3.08;;;2.30;;
19260;SDS011;9764;48.114;11.670;2022-08-03T01:45:41;3.67;;;2.67;;
19260;SDS011;9764;48.114;11.670;2022-08-03T01:48:11;2.70;;;2.40;;
19260;SDS011;9764;48.114;11.670;2022-08-03T01:50:40;2.60;;;2.40;;
19260;SDS011;9764;48.114;11.670;2022-08-03T01:53:09;2.53;;;2.33;;
19260;SDS011;9764;48.114;11.670;2022-08-03T01:55:40;2.97;;;2.30;;
19260;SDS011;9764;48.114;11.670;2022-08-03T01:58:10;2.25;;;2.05;;
19260;SDS011;9764;48.114;11.670;2022-08-03T02:00:43;2.58;;;2.30;;
19260;SDS011;9764;48.114;11.670;2022-08-03T02:03:12;3.17;;;2.38;;
19260;SDS011;9764;48.114;11.670;2022-08-03T02:05:42;3.30;;;2.40;;
19260;SDS011;9764;48.114;11.670;2022-08-03T02:08:12;3.17;;;2.40;;
19260;SDS011;9764;48.114;11.670;2022-08-03T02:10:43;3.20;;;2.00;;
19260;SDS011;9764;48.114;11.670;2022-08-03T02:13:12;2.63;;;2.22;;
19260;SDS011;9764;48.114;11.670;2022-08-03T02:15:43;2.38;;;2.17;;
19260;SDS011;9764;48.114;11.670;2022-08-03T02:18:13;2.88;;;2.17;;
19260;SDS011;9764;48.114;11.670;2022-08-03T02:20:43;2.72;;;2.28;;
19260;SDS011;9764;48.114;11.670;2022-08-03T02:23:11;6.55;;;2.42;;
19260;SDS011;9764;48.114;11.670;2022-08-03T02:25:43;2.50;;;2.30;;
19260;SDS011;9764;48.114;11.670;2022-08-03T02:28:14;3.33;;;2.35;;
19260;SDS011;9764;48.114;11.670;2022-08-03T02:30:45;2.45;;;2.25;;
19260;SDS011;9764;48.114;11.670;2022-08-03T02:33:20;2.00;;;1.90;;
19260;SDS011;9764;48.114;11.670;2022-08-03T02:35:51;2.40;;;2.05;;
19260;SDS011;9764;48.114;11.670;2022-08-03T02:38:22;3.67;;;2.28;;
19260;SDS011;9764;48.114;11.670;2022-08-03T02:40:53;2.65;;;2.40;;
19260;SDS011;9764;48.114;11.670;2022-08-03T02:43:23;3.97;;;2.25;;
19260;SDS011;9764;48.114;11.670;2022-08-03T02:45:53;4.85;;;2.47;;
19260;SDS011;9764;48.114;11.670;2022-08-03T02:48:23;2.47;;;2.28;;
19260;SDS011;9764;48.114;11.670;2022-08-03T02:50:53;2.65;;;2.10;;
19260;SDS011;9764;48.114;11.670;2022-08-03T02:53:22;3.30;;;2.40;;
19260;SDS011;9764;48.114;11.670;2022-08-03T02:55:51;2.60;;;2.20;;
19260;SDS011;9764;48.114;11.670;2022-08-03T02:58:20;2.78;;;2.00;;
19260;SDS011;9764;48.114;11.670;2022-08-03T03:00:51;2.50;;;2.30;;
19260;SDS011;9764;48.114;11.670;2022-08-03T03:03:22;2.63;;;2.15;;
19260;SDS011;9764;48.114;11.670;2022-08-03T03:05:53;3.95;;;2.38;;
19260;SDS011;9764;48.114;11.670;2022-08-03T03:08:25;2.20;;;2.00;;
19260;SDS011;9764;48.114;11.670;2022-08-03T03:10:55;2.72;;;2.42;;
19260;SDS011;9764;48.114;11.670;2022-08-03T03:13:24;2.92;;;2.50;;
19260;SDS011;9764;48.114;11.670;2022-08-03T03:15:55;2.75;;;2.35;;
19260;SDS011;9764;48.114;11.670;2022-08-03T03:18:25;2.55;;;2.35;;
19260;SDS011;9764;48.114;11.670;2022-08-03T03:20:54;2.40;;;2.20;;
19260;SDS011;9764;48.114;11.670;2022-08-03T03:23:23;4.03;;;2.55;;
19260;SDS011;9764;48.114;11.670;2022-08-03T03:25:52;3.65;;;2.40;;
19260;SDS011;9764;48.114;11.670;2022-08-03T03:28:21;3.08;;;2.20;;
19260;SDS011;9764;48.114;11.670;2022-08-03T03:30:50;3.92;;;2.50;;
19260;SDS011;9764;48.114;11.670;2022-08-03T03:33:19;4.68;;;2.72;;
19260;SDS011;9764;48.114;11.670;2022-08-03T03:35:50;2.53;;;2.33;;
19260;SDS011;9764;48.114;11.670;2022-08-03T03:38:18;2.60;;;2.40;;
19260;SDS011;9764;48.114;11.670;2022-08-03T03:40:47;3.40;;;2.28;;
19260;SDS011;9764;48.114;11.670;2022-08-03T03:43:16;2.55;;;2.35;;
19260;SDS011;9764;48.114;11.670;2022-08-03T03:45:45;4.95;;;2.38;;
19260;SDS011;9764;48.114;11.670;2022-08-03T03:48:15;3.40;;;2.25;;
19260;SDS011;9764;48.114;11.670;2022-08-03T03:50:44;4.53;;;2.42;;
19260;SDS011;9764;48.114;11.670;2022-08-03T03:53:14;2.60;;;2.40;;
19260;SDS011;9764;48.114;11.670;2022-08-03T03:55:43;2.50;;;2.25;;
19260;SDS011;9764;48.114;11.670;2022-08-03T03:58:28;2.85;;;2.28;;
19260;SDS011;9764;48.114;11.670;2022-08-03T04:00:57;2.25;;;2.05;;
19260;SDS011;9764;48.114;11.670;2022-08-03T04:03:26;2.80;;;2.20;;
19260;SDS011;9764;48.114;11.670;2022-08-03T04:05:55;2.70;;;2.50;;
19260;SDS011;9764;48.114;11.670;2022-08-03T04:08:43;2.25;;;2.05;;
19260;SDS011;9764;48.114;11.670;2022-08-03T04:11:30;2.55;;;2.30;;
19260;SDS011;9764;48.114;11.670;2022-08-03T04:14:02;4.32;;;2.53;;
19260;SDS011;9764;48.114;11.670;2022-08-03T04:16:34;2.72;;;2.53;;
19260;SDS011;9764;48.114;11.670;2022-08-03T04:19:09;4.90;;;2.70;;
19260;SDS011;9764;48.114;11.670;2022-08-03T04:21:39;2.67;;;2.00;;
19260;SDS011;9764;48.114;11.670;2022-08-03T04:24:09;3.90;;;2.22;;
19260;SDS011;9764;48.114;11.670;2022-08-03T04:26:39;2.33;;;2.13;;
19260;SDS011;9764;48.114;11.670;2022-08-03T04:29:09;3.65;;;2.22;;
19260;SDS011;9764;48.114;11.670;2022-08-03T04:31:39;4.55;;;2.30;;
19260;SDS011;9764;48.114;11.670;2022-08-03T04:34:09;4.82;;;2.30;;
19260;SDS011;9764;48.114;11.670;2022-08-03T04:36:42;3.50;;;2.53;;
19260;SDS011;9764;48.114;11.670;2022-08-03T04:39:15;6.22;;;2.45;;
19260;SDS011;9764;48.114;11.670;2022-08-03T04:41:47;3.65;;;2.08;;
19260;SDS011;9764;48.114;11.670;2022-08-03T04:44:36;5.05;;;2.17;;
19260;SDS011;9764;48.114;11.670;2022-08-03T04:47:06;3.03;;;2.63;;
19260;SDS011;9764;48.114;11.670;2022-08-03T04:49:35;5.90;;;2.58;;
19260;SDS011;9764;48.114;11.670;2022-08-03T04:52:04;3.08;;;2.40;;
19260;SDS011;9764;48.114;11.670;2022-08-03T04:54:40;3.80;;;2.30;;
19260;SDS011;9764;48.114;11.670;2022-08-03T04:57:16;5.03;;;2.42;;
19260;SDS011;9764;48.114;11.670;2022-08-03T04:59:49;2.80;;;2.38;;
19260;SDS011;9764;48.114;11.670;2022-08-03T05:02:27;4.40;;;2.50;;
19260;SDS011;9764;48.114;11.670;2022-08-03T05:04:56;3.80;;;2.90;;
19260;SDS011;9764;48.114;11.670;2022-08-03T05:07:25;2.88;;;2.58;;
19260;SDS011;9764;48.114;11.670;2022-08-03T05:10:05;3.63;;;2.70;;
19260;SDS011;9764;48.114;11.670;2022-08-03T05:12:41;3.60;;;2.55;;
19260;SDS011;9764;48.114;11.670;2022-08-03T05:15:09;3.72;;;2.50;;
19260;SDS011;9764;48.114;11.670;2022-08-03T05:17:38;5.05;;;2.75;;
19260;SDS011;9764;48.114;11.670;2022-08-03T05:20:07;6.28;;;2.70;;
19260;SDS011;9764;48.114;11.670;2022-08-03T05:22:36;3.97;;;2.97;;
19260;SDS011;9764;48.114;11.670;2022-08-03T05:25:06;3.40;;;3.10;;
19260;SDS011;9764;48.114;11.670;2022-08-03T05:27:43;3.67;;;2.97;;
19260;SDS011;9764;48.114;11.670;2022-08-03T05:30:11;4.90;;;2.63;;
19260;SDS011;9764;48.114;11.670;2022-08-03T05:33:00;4.25;;;2.60;;
19260;SDS011;9764;48.114;11.670;2022-08-03T05:35:28;3.53;;;2.90;;
19260;SDS011;9764;48.114;11.670;2022-08-03T05:38:17;3.78;;;3.10;;
19260;SDS011;9764;48.114;11.670;2022-08-03T05:40:56;3.75;;;2.80;;
19260;SDS011;9764;48.114;11.670;2022-08-03T05:43:45;5.30;;;3.10;;
19260;SDS011;9764;48.114;11.670;2022-08-03T05:46:14;3.17;;;2.90;;
19260;SDS011;9764;48.114;11.670;2022-08-03T05:48:42;10.65;;;3.15;;
19260;SDS011;9764;48.114;11.670;2022-08-03T05:51:11;2.95;;;2.75;;
19260;SDS011;9764;48.114;11.670;2022-08-03T05:53:39;5.38;;;3.47;;
19260;SDS011;9764;48.114;11.670;2022-08-03T05:56:10;5.47;;;2.97;;
19260;SDS011;9764;48.114;11.670;2022-08-03T05:58:42;3.60;;;3.20;;
19260;SDS011;9764;48.114;11.670;2022-08-03T06:01:12;3.30;;;2.85;;
19260;SDS011;9764;48.114;11.670;2022-08-03T06:03:40;3.67;;;3.33;;
19260;SDS011;9764;48.114;11.670;2022-08-03T06:06:09;4.72;;;3.22;;
19260;SDS011;9764;48.114;11.670;2022-08-03T06:08:38;4.47;;;3.15;;
19260;SDS011;9764;48.114;11.670;2022-08-03T06:11:07;4.53;;;3.20;;
19260;SDS011;9764;48.114;11.670;2022-08-03T06:13:37;4.78;;;3.22;;
19260;SDS011;9764;48.114;11.670;2022-08-03T06:16:05;3.75;;;3.35;;
19260;SDS011;9764;48.114;11.670;2022-08-03T06:18:37;3.80;;;3.20;;
19260;SDS011;9764;48.114;11.670;2022-08-03T06:21:06;5.20;;;3.22;;
19260;SDS011;9764;48.114;11.670;2022-08-03T06:23:42;5.15;;;3.60;;
19260;SDS011;9764;48.114;11.670;2022-08-03T06:26:20;13.52;;;3.53;;
19260;SDS011;9764;48.114;11.670;2022-08-03T06:28:50;3.75;;;2.92;;
19260;SDS011;9764;48.114;11.670;2022-08-03T06:31:21;4.63;;;3.05;;
19260;SDS011;9764;48.114;11.670;2022-08-03T06:33:58;3.90;;;2.88;;
19260;SDS011;9764;48.114;11.670;2022-08-03T06:36:46;3.30;;;2.95;;
19260;SDS011;9764;48.114;11.670;2022-08-03T06:39:18;4.38;;;2.90;;
19260;SDS011;9764;48.114;11.670;2022-08-03T06:41:50;4.40;;;2.70;;
19260;SDS011;9764;48.114;11.670;2022-08-03T06:44:20;3.60;;;2.70;;
19260;SDS011;9764;48.114;11.670;2022-08-03T06:46:48;4.70;;;2.83;;
19260;SDS011;9764;48.114;11.670;2022-08-03T06:49:18;4.47;;;2.63;;
19260;SDS011;9764;48.114;11.670;2022-08-03T06:51:46;4.50;;;3.22;;
19260;SDS011;9764;48.114;11.670;2022-08-03T06:54:32;3.92;;;3.00;;
19260;SDS011;9764;48.114;11.670;2022-08-03T06:57:02;3.22;;;2.92;;
19260;SDS011;9764;48.114;11.670;2022-08-03T06:59:32;3.25;;;2.70;;
19260;SDS011;9764;48.114;11.670;2022-08-03T07:02:20;3.00;;;2.78;;
19260;SDS011;9764;48.114;11.670;2022-08-03T07:04:53;3.13;;;2.83;;
19260;SDS011;9764;48.114;11.670;2022-08-03T07:07:22;3.70;;;2.63;;
19260;SDS011;9764;48.114;11.670;2022-08-03T07:09:50;2.88;;;2.65;;
19260;SDS011;9764;48.114;11.670;2022-08-03T07:12:23;3.60;;;2.75;;
19260;SDS011;9764;48.114;11.670;2022-08-03T07:14:53;3.85;;;3.20;;
19260;SDS011;9764;48.114;11.670;2022-08-03T07:17:27;3.92;;;3.30;;
19260;SDS011;9764;48.114;11.670;2022-08-03T07:19:56;5.47;;;3.60;;
19260;SDS011;9764;48.114;11.670;2022-08-03T07:22:25;5.20;;;3.53;;
19260;SDS011;9764;48.114;11.670;2022-08-03T07:24:54;4.07;;;3.63;;
19260;SDS011;9764;48.114;11.670;2022-08-03T07:27:23;5.22;;;4.03;;
19260;SDS011;9764;48.114;11.670;2022-08-03T07:29:55;6.65;;;3.50;;
19260;SDS011;9764;48.114;11.670;2022-08-03T07:32:24;3.28;;;3.03;;
19260;SDS011;9764;48.114;11.670;2022-08-03T07:34:53;4.13;;;3.35;;
19260;SDS011;9764;48.114;11.670;2022-08-03T07:37:27;4.18;;;3.40;;
19260;SDS011;9764;48.114;11.670;2022-08-03T07:39:55;5.20;;;3.10;;
19260;SDS011;9764;48.114;11.670;2022-08-03T07:42:24;4.68;;;3.13;;
19260;SDS011;9764;48.114;11.670;2022-08-03T07:44:54;7.07;;;2.75;;
19260;SDS011;9764;48.114;11.670;2022-08-03T07:47:25;3.55;;;3.25;;
19260;SDS011;9764;48.114;11.670;2022-08-03T07:50:01;3.58;;;2.80;;
19260;SDS011;9764;48.114;11.670;2022-08-03T07:52:30;3.72;;;2.72;;
19260;SDS011;9764;48.114;11.670;2022-08-03T07:55:19;4.07;;;2.92;;
19260;SDS011;9764;48.114;11.670;2022-08-03T07:57:58;6.55;;;2.70;;
19260;SDS011;9764;48.114;11.670;2022-08-03T08:00:28;3.30;;;3.00;;
19260;SDS011;9764;48.114;11.670;2022-08-03T08:02:56;3.03;;;2.80;;
19260;SDS011;9764;48.114;11.670;2022-08-03T08:05:25;3.00;;;2.70;;
19260;SDS011;9764;48.114;11.670;2022-08-03T08:07:54;5.07;;;2.70;;
19260;SDS011;9764;48.114;11.670;2022-08-03T08:10:23;6.60;;;3.10;;
19260;SDS011;9764;48.114;11.670;2022-08-03T08:12:52;3.00;;;2.42;;
19260;SDS011;9764;48.114;11.670;2022-08-03T08:15:21;3.28;;;2.72;;
19260;SDS011;9764;48.114;11.670;2022-08-03T08:17:52;2.13;;;2.00;;
19260;SDS011;9764;48.114;11.670;2022-08-03T08:20:21;3.05;;;2.55;;
19260;SDS011;9764;48.114;11.670;2022-08-03T08:22:56;4.22;;;3.05;;
19260;SDS011;9764;48.114;11.670;2022-08-03T08:25:27;4.03;;;2.50;;
19260;SDS011;9764;48.114;11.670;2022-08-03T08:27:56;3.38;;;2.42;;
19260;SDS011;9764;48.114;11.670;2022-08-03T08:30:47;2.45;;;2.25;;
19260;SDS011;9764;48.114;11.670;2022-08-03T08:33:17;2.90;;;2.55;;
19260;SDS011;9764;48.114;11.670;2022-08-03T08:35:49;4.97;;;2.40;;
19260;SDS011;9764;48.114;11.670;2022-08-03T08:38:18;4.22;;;2.30;;
19260;SDS011;9764;48.114;11.670;2022-08-03T08:40:47;2.50;;;2.20;;
19260;SDS011;9764;48.114;11.670;2022-08-03T08:43:16;2.47;;;2.28;;
19260;SDS011;9764;48.114;11.670;2022-08-03T08:45:45;3.00;;;2.47;;
19260;SDS011;9764;48.114;11.670;2022-08-03T08:48:14;2.63;;;2.42;;
19260;SDS011;9764;48.114;11.670;2022-08-03T08:50:46;4.00;;;2.35;;
19260;SDS011;9764;48.114;11.670;2022-08-03T08:53:15;2.63;;;2.40;;
19260;SDS011;9764;48.114;11.670;2022-08-03T08:55:52;2.50;;;2.30;;
19260;SDS011;9764;48.114;11.670;2022-08-03T08:58:27;3.47;;;2.20;;
19260;SDS011;9764;48.114;11.670;2022-08-03T09:00:55;2.55;;;2.13;;
19260;SDS011;9764;48.114;11.670;2022-08-03T09:03:24;2.53;;;2.33;;
19260;SDS011;9764;48.114;11.670;2022-08-03T09:05:58;2.40;;;2.20;;
19260;SDS011;9764;48.114;11.670;2022-08-03T09:08:27;2.22;;;1.95;;
19260;SDS011;9764;48.114;11.670;2022-08-03T09:10:56;4.78;;;2.38;;
19260;SDS011;9764;48.114;11.670;2022-08-03T09:13:25;2.50;;;2.30;;
19260;SDS011;9764;48.114;11.670;2022-08-03T09:16:08;2.72;;;1.60;;
19260;SDS011;9764;48.114;11.670;2022-08-03T09:18:37;2.28;;;2.08;;
19260;SDS011;9764;48.114;11.670;2022-08-03T09:21:14;2.08;;;1.88;;
19260;SDS011;9764;48.114;11.670;2022-08-03T09:24:00;2.78;;;1.80;;
19260;SDS011;9764;48.114;11.670;2022-08-03T09:26:32;5.13;;;2.10;;
19260;SDS011;9764;48.114;11.670;2022-08-03T09:29:01;2.33;;;1.90;;
19260;SDS011;9764;48.114;11.670;2022-08-03T09:31:35;3.00;;;2.00;;
19260;SDS011;9764;48.114;11.670;2022-08-03T09:34:09;4.18;;;1.80;;
19260;SDS011;9764;48.114;11.670;2022-08-03T09:36:41;2.03;;;1.70;;
19260;SDS011;9764;48.114;11.670;2022-08-03T09:39:10;2.28;;;1.90;;
19260;SDS011;9764;48.114;11.670;2022-08-03T09:41:39;1.85;;;1.75;;
19260;SDS011;9764;48.114;11.670;2022-08-03T09:44:08;1.73;;;1.63;;
19260;SDS011;9764;48.114;11.670;2022-08-03T09:46:51;1.88;;;1.65;;
19260;SDS011;9764;48.114;11.670;2022-08-03T09:49:21;1.98;;;1.77;;
19260;SDS011;9764;48.114;11.670;2022-08-03T09:51:52;2.30;;;1.70;;
19260;SDS011;9764;48.114;11.670;2022-08-03T09:54:41;1.85;;;1.60;;
19260;SDS011;9764;48.114;11.670;2022-08-03T09:57:18;1.77;;;1.67;;
19260;SDS011;9764;48.114;11.670;2022-08-03T09:59:48;1.63;;;1.50;;
19260;SDS011;9764;48.114;11.670;2022-08-03T10:02:38;2.40;;;1.70;;
19260;SDS011;9764;48.114;11.670;2022-08-03T10:05:07;1.50;;;1.40;;
19260;SDS011;9764;48.114;11.670;2022-08-03T10:07:47;2.15;;;1.27;;
19260;SDS011;9764;48.114;11.670;2022-08-03T10:10:16;2.72;;;1.90;;
19260;SDS011;9764;48.114;11.670;2022-08-03T10:12:57;1.67;;;1.45;;
19260;SDS011;9764;48.114;11.670;2022-08-03T10:15:27;1.67;;;1.38;;
19260;SDS011;9764;48.114;11.670;2022-08-03T10:18:16;3.42;;;1.50;;
19260;SDS011;9764;48.114;11.670;2022-08-03T10:20:45;2.17;;;1.40;;
19260;SDS011;9764;48.114;11.670;2022-08-03T10:23:18;1.67;;;1.58;;
19260;SDS011;9764;48.114;11.670;2022-08-03T10:25:48;1.60;;;1.50;;
19260;SDS011;9764;48.114;11.670;2022-08-03T10:28:18;2.97;;;1.70;;
19260;SDS011;9764;48.114;11.670;2022-08-03T10:30:49;1.40;;;1.30;;
19260;SDS011;9764;48.114;11.670;2022-08-03T10:33:18;1.27;;;1.13;;
19260;SDS011;9764;48.114;11.670;2022-08-03T10:36:08;2.55;;;1.20;;
19260;SDS011;9764;48.114;11.670;2022-08-03T10:38:39;1.70;;;1.60;;
19260;SDS011;9764;48.114;11.670;2022-08-03T10:41:11;3.00;;;1.50;;
19260;SDS011;9764;48.114;11.670;2022-08-03T10:43:41;1.40;;;1.30;;
19260;SDS011;9764;48.114;11.670;2022-08-03T10:46:14;1.48;;;1.38;;
19260;SDS011;9764;48.114;11.670;2022-08-03T10:48:44;1.27;;;1.08;;
19260;SDS011;9764;48.114;11.670;2022-08-03T10:51:13;2.58;;;1.35;;
19260;SDS011;9764;48.114;11.670;2022-08-03T10:53:44;1.25;;;1.15;;
19260;SDS011;9764;48.114;11.670;2022-08-03T10:56:39;1.98;;;1.30;;
19260;SDS011;9764;48.114;11.670;2022-08-03T11:05:26;1.40;;;1.30;;
19260;SDS011;9764;48.114;11.670;2022-08-03T11:10:43;1.50;;;1.40;;
19260;SDS011;9764;48.114;11.670;2022-08-03T11:13:13;1.52;;;1.42;;
19260;SDS011;9764;48.114;11.670;2022-08-03T11:15:43;3.53;;;1.50;;
19260;SDS011;9764;48.114;11.670;2022-08-03T11:18:13;2.15;;;1.27;;
19260;SDS011;9764;48.114;11.670;2022-08-03T11:20:42;2.00;;;1.80;;
19260;SDS011;9764;48.114;11.670;2022-08-03T11:23:11;3.05;;;1.45;;
19260;SDS011;9764;48.114;11.670;2022-08-03T11:28:28;1.30;;;1.20;;
19260;SDS011;9764;48.114;11.670;2022-08-03T11:34:02;1.33;;;1.23;;
19260;SDS011;9764;48.114;11.670;2022-08-03T11:36:32;1.52;;;1.42;;
